createdAt,value
2017-08-08T00:01:45.724Z,19.33
2017-08-08T00:04:12.604Z,17.03
2017-08-08T00:06:39.492Z,17.87
2017-08-08T00:09:06.320Z,19.00
2017-08-08T00:11:33.120Z,18.83
2017-08-08T00:13:59.899Z,18.73
2017-08-08T00:16:26.732Z,18.37
2017-08-08T00:18:53.592Z,19.10
2017-08-08T00:21:20.367Z,17.93
2017-08-08T00:23:47.184Z,21.30
2017-08-08T00:26:14.061Z,19.70
2017-08-08T00:28:40.827Z,19.57
2017-08-08T00:31:07.667Z,19.17
2017-08-08T00:33:34.546Z,18.87
2017-08-08T00:36:01.374Z,18.77
2017-08-08T00:38:28.206Z,18.77
2017-08-08T00:40:55.090Z,19.13
2017-08-08T00:43:21.870Z,18.97
2017-08-08T00:45:48.650Z,19.17
2017-08-08T00:48:15.568Z,19.03
2017-08-08T00:50:42.345Z,19.27
2017-08-08T00:53:09.191Z,18.87
2017-08-08T00:55:36.129Z,19.63
2017-08-08T00:58:02.909Z,19.60
2017-08-08T01:00:29.727Z,19.30
2017-08-08T01:02:56.561Z,17.77
2017-08-08T01:05:23.347Z,19.00
2017-08-08T01:07:50.188Z,19.50
2017-08-08T01:10:17.087Z,19.03
2017-08-08T01:12:43.917Z,18.87
2017-08-08T01:15:10.763Z,18.50
2017-08-08T01:17:37.561Z,18.63
2017-08-08T01:20:04.388Z,18.90
2017-08-08T01:22:31.169Z,17.87
2017-08-08T01:24:57.985Z,18.60
2017-08-08T01:27:24.760Z,19.30
2017-08-08T01:29:51.538Z,19.83
2017-08-08T01:32:18.346Z,19.20
2017-08-08T01:34:45.175Z,18.20
2017-08-08T01:37:11.949Z,19.00
2017-08-08T01:39:38.869Z,19.93
2017-08-08T01:42:05.715Z,18.33
2017-08-08T01:44:32.533Z,19.17
2017-08-08T01:46:59.426Z,19.50
2017-08-08T01:49:26.198Z,19.47
2017-08-08T01:51:53.043Z,19.50
2017-08-08T01:54:19.861Z,18.83
2017-08-08T01:56:46.658Z,19.60
2017-08-08T01:59:13.452Z,19.30
2017-08-08T02:01:40.293Z,19.33
2017-08-08T02:04:07.189Z,18.83
2017-08-08T02:06:34.034Z,19.80
2017-08-08T02:09:00.861Z,18.83
2017-08-08T02:11:27.665Z,18.23
2017-08-08T02:13:54.431Z,18.50
2017-08-08T02:16:22.217Z,18.73
2017-08-08T02:18:49.070Z,18.57
2017-08-08T02:21:15.914Z,18.63
2017-08-08T02:23:43.060Z,18.90
2017-08-08T02:26:10.004Z,18.70
2017-08-08T02:28:36.766Z,18.90
2017-08-08T02:31:03.654Z,19.03
2017-08-08T02:33:30.527Z,19.70
2017-08-08T02:35:57.297Z,20.53
2017-08-08T02:38:24.521Z,18.73
2017-08-08T02:40:51.299Z,19.50
2017-08-08T02:43:18.064Z,20.30
2017-08-08T02:45:44.863Z,19.40
2017-08-08T02:48:11.630Z,19.83
2017-08-08T02:50:38.831Z,20.10
2017-08-08T02:53:05.664Z,20.30
2017-08-08T02:55:32.513Z,19.23
2017-08-08T02:58:00.311Z,35.53
2017-08-08T03:00:27.195Z,27.33
2017-08-08T03:02:54.019Z,21.00
2017-08-08T03:05:28.157Z,21.10
2017-08-08T03:07:54.980Z,19.87
2017-08-08T03:10:21.823Z,19.53
2017-08-08T03:12:48.653Z,19.93
2017-08-08T03:15:15.429Z,19.07
2017-08-08T03:17:42.278Z,18.43
2017-08-08T03:20:09.145Z,19.57
2017-08-08T03:22:35.980Z,18.93
2017-08-08T03:25:02.756Z,21.17
2017-08-08T03:27:29.648Z,19.20
2017-08-08T03:29:56.415Z,19.37
2017-08-08T03:32:23.185Z,19.97
2017-08-08T03:34:50.002Z,20.50
2017-08-08T03:37:16.842Z,19.93
2017-08-08T03:39:43.614Z,20.80
2017-08-08T03:42:10.484Z,21.53
2017-08-08T03:44:37.264Z,20.10
2017-08-08T03:47:04.088Z,19.47
2017-08-08T03:49:30.918Z,22.27
2017-08-08T03:51:57.740Z,19.83
2017-08-08T03:54:24.579Z,21.30
2017-08-08T03:56:51.476Z,19.50
2017-08-08T03:59:18.330Z,19.73
2017-08-08T04:01:45.096Z,20.20
2017-08-08T04:04:11.992Z,19.37
2017-08-08T04:06:38.830Z,21.37
2017-08-08T04:09:05.768Z,20.40
2017-08-08T04:11:32.640Z,21.90
2017-08-08T04:13:59.469Z,20.40
2017-08-08T04:16:26.292Z,19.57
2017-08-08T04:18:53.100Z,21.57
2017-08-08T04:21:19.869Z,21.17
2017-08-08T04:23:46.726Z,22.53
2017-08-08T04:26:13.546Z,21.90
2017-08-08T04:28:40.397Z,19.90
2017-08-08T04:31:07.238Z,20.83
2017-08-08T04:33:34.058Z,20.57
2017-08-08T04:36:00.830Z,20.10
2017-08-08T04:38:27.670Z,19.70
2017-08-08T04:40:54.564Z,21.30
2017-08-08T04:43:21.392Z,21.30
2017-08-08T04:45:48.168Z,20.30
2017-08-08T04:48:15.046Z,22.53
2017-08-08T04:50:41.889Z,20.63
2017-08-08T04:53:09.658Z,21.77
2017-08-08T04:55:36.562Z,21.43
2017-08-08T04:58:03.335Z,21.07
2017-08-08T05:00:30.105Z,22.63
2017-08-08T05:02:57.009Z,22.37
2017-08-08T05:05:23.784Z,23.30
2017-08-08T05:07:50.636Z,22.40
2017-08-08T05:10:17.436Z,23.60
2017-08-08T05:12:44.264Z,23.67
2017-08-08T05:15:11.890Z,22.63
2017-08-08T05:17:38.718Z,22.00
2017-08-08T05:20:05.543Z,22.67
2017-08-08T05:22:32.389Z,21.87
2017-08-08T05:24:59.216Z,22.43
2017-08-08T05:27:26.218Z,22.93
2017-08-08T05:29:52.996Z,23.30
2017-08-08T05:32:19.822Z,23.60
2017-08-08T05:34:46.609Z,21.33
2017-08-08T05:37:13.515Z,21.67
2017-08-08T05:39:40.319Z,22.77
2017-08-08T05:42:07.098Z,22.13
2017-08-08T05:44:33.924Z,20.67
2017-08-08T05:47:00.734Z,23.90
2017-08-08T05:49:27.563Z,21.70
2017-08-08T05:51:54.354Z,22.30
2017-08-08T05:54:21.243Z,22.60
2017-08-08T05:56:48.150Z,23.87
2017-08-08T05:59:15.097Z,23.67
2017-08-08T06:01:41.983Z,22.93
2017-08-08T06:04:08.824Z,22.83
2017-08-08T06:06:35.613Z,23.03
2017-08-08T06:09:02.873Z,24.27
2017-08-08T06:11:29.645Z,24.00
2017-08-08T06:13:56.476Z,22.67
2017-08-08T06:16:23.366Z,22.70
2017-08-08T06:18:50.549Z,23.30
2017-08-08T06:21:17.420Z,23.60
2017-08-08T06:23:44.248Z,22.63
2017-08-08T06:26:11.078Z,23.13
2017-08-08T06:28:37.865Z,24.33
2017-08-08T06:31:04.663Z,23.10
2017-08-08T06:33:31.514Z,22.80
2017-08-08T06:35:58.292Z,22.83
2017-08-08T06:38:25.113Z,24.50
2017-08-08T06:40:51.940Z,22.53
2017-08-08T06:43:18.731Z,23.40
2017-08-08T06:45:45.564Z,23.00
2017-08-08T06:48:12.412Z,22.90
2017-08-08T06:50:39.198Z,24.50
2017-08-08T06:53:06.022Z,23.70
2017-08-08T06:55:32.805Z,22.27
2017-08-08T06:57:59.576Z,23.50
2017-08-08T07:00:26.439Z,21.80
2017-08-08T07:02:53.225Z,21.03
2017-08-08T07:05:20.005Z,23.20
2017-08-08T07:07:46.881Z,22.13
2017-08-08T07:10:13.720Z,22.80
2017-08-08T07:12:40.563Z,23.97
2017-08-08T07:15:07.432Z,23.70
2017-08-08T07:17:34.200Z,22.87
2017-08-08T07:20:00.978Z,23.73
2017-08-08T07:22:27.860Z,24.30
2017-08-08T07:24:54.710Z,24.63
2017-08-08T07:27:21.599Z,23.53
2017-08-08T07:29:48.416Z,24.23
2017-08-08T07:32:15.201Z,23.23
2017-08-08T07:34:41.992Z,24.60
2017-08-08T07:37:08.805Z,23.30
2017-08-08T07:39:35.607Z,24.00
2017-08-08T07:42:03.216Z,23.27
2017-08-08T07:44:30.555Z,24.00
2017-08-08T07:46:57.331Z,22.50
2017-08-08T07:49:24.211Z,23.37
2017-08-08T07:51:51.091Z,23.80
2017-08-08T07:54:17.942Z,23.30
2017-08-08T07:56:44.756Z,22.73
2017-08-08T07:59:11.640Z,23.23
2017-08-08T08:01:38.439Z,23.20
2017-08-08T08:04:05.315Z,22.40
2017-08-08T08:06:32.156Z,23.07
2017-08-08T08:08:58.952Z,22.90
2017-08-08T08:11:25.791Z,21.53
2017-08-08T08:13:52.645Z,22.27
2017-08-08T08:16:19.435Z,21.30
2017-08-08T08:18:46.267Z,20.80
2017-08-08T08:21:13.179Z,21.87
2017-08-08T08:23:41.139Z,19.23
2017-08-08T08:26:07.932Z,19.60
2017-08-08T08:28:34.830Z,19.87
2017-08-08T08:31:01.692Z,20.77
2017-08-08T08:33:28.560Z,19.90
2017-08-08T08:35:55.642Z,19.57
2017-08-08T08:38:22.440Z,20.50
2017-08-08T08:40:49.943Z,20.00
2017-08-08T08:43:16.850Z,19.80
2017-08-08T08:45:43.652Z,21.10
2017-08-08T08:48:10.582Z,20.00
2017-08-08T08:50:37.431Z,20.00
2017-08-08T08:53:04.266Z,20.50
2017-08-08T08:55:31.063Z,21.40
2017-08-08T08:57:57.920Z,21.00
2017-08-08T09:00:24.776Z,19.50
2017-08-08T09:02:51.733Z,20.00
2017-08-08T09:05:18.823Z,18.80
2017-08-08T09:07:45.680Z,19.90
2017-08-08T09:10:12.539Z,18.70
2017-08-08T09:12:39.410Z,19.80
2017-08-08T09:15:06.286Z,19.07
2017-08-08T09:17:33.080Z,20.83
2017-08-08T09:19:59.921Z,20.43
2017-08-08T09:22:26.719Z,20.10
2017-08-08T09:24:53.558Z,17.53
2017-08-08T09:27:20.458Z,20.33
2017-08-08T09:29:47.437Z,18.37
2017-08-08T09:32:14.315Z,19.60
2017-08-08T09:34:41.294Z,19.93
2017-08-08T09:37:08.152Z,19.07
2017-08-08T09:39:34.949Z,19.37
2017-08-08T09:42:01.864Z,18.60
2017-08-08T09:44:28.720Z,18.17
2017-08-08T09:46:56.295Z,17.80
2017-08-08T09:49:23.182Z,17.50
2017-08-08T09:51:49.980Z,18.40
2017-08-08T09:54:16.779Z,18.03
2017-08-08T09:56:43.687Z,20.10
2017-08-08T09:59:10.577Z,19.17
2017-08-08T10:01:37.482Z,17.20
2017-08-08T10:04:04.328Z,17.90
2017-08-08T10:06:31.202Z,17.00
2017-08-08T10:08:58.020Z,17.87
2017-08-08T10:11:24.898Z,18.60
2017-08-08T10:13:51.889Z,18.70
2017-08-08T10:16:19.255Z,18.90
2017-08-08T10:18:46.166Z,18.33
2017-08-08T10:21:12.972Z,17.67
2017-08-08T10:23:39.862Z,17.40
2017-08-08T10:26:06.711Z,18.80
2017-08-08T10:28:33.561Z,18.10
2017-08-08T10:31:00.700Z,17.33
2017-08-08T10:33:28.557Z,17.20
2017-08-08T10:35:55.423Z,17.57
2017-08-08T10:38:22.234Z,19.40
2017-08-08T10:40:49.071Z,18.20
2017-08-08T10:43:15.924Z,18.40
2017-08-08T10:45:42.732Z,17.97
2017-08-08T10:48:09.595Z,18.10
2017-08-08T10:50:36.437Z,19.47
2017-08-08T10:53:04.220Z,19.10
2017-08-08T10:55:31.124Z,18.57
2017-08-08T10:57:58.322Z,18.30
2017-08-08T11:00:25.186Z,18.70
2017-08-08T11:02:52.024Z,18.60
2017-08-08T11:05:18.894Z,18.30
2017-08-08T11:07:46.496Z,18.30
2017-08-08T11:10:14.715Z,17.53
2017-08-08T11:12:41.564Z,16.90
2017-08-08T11:15:08.428Z,15.97
2017-08-08T11:17:35.266Z,18.07
2017-08-08T11:20:03.420Z,18.20
2017-08-08T11:22:30.285Z,17.60
2017-08-08T11:24:57.164Z,17.80
2017-08-08T11:27:23.965Z,17.67
2017-08-08T11:29:50.865Z,17.47
2017-08-08T11:32:19.480Z,17.70
2017-08-08T11:34:47.171Z,17.63
2017-08-08T11:37:14.877Z,16.50
2017-08-08T11:39:41.745Z,16.03
2017-08-08T11:42:09.273Z,16.60
2017-08-08T11:44:37.073Z,16.87
2017-08-08T11:47:05.707Z,16.53
2017-08-08T11:49:32.529Z,16.40
2017-08-08T11:51:59.396Z,16.33
2017-08-08T11:54:26.278Z,18.20
2017-08-08T11:56:54.996Z,16.00
2017-08-08T11:59:21.938Z,16.73
2017-08-08T12:01:48.926Z,15.90
2017-08-08T12:04:15.736Z,16.13
2017-08-08T12:06:42.608Z,16.47
2017-08-08T12:09:09.525Z,15.83
2017-08-08T12:11:36.388Z,17.07
2017-08-08T12:14:03.194Z,16.97
2017-08-08T12:16:30.033Z,16.70
2017-08-08T12:18:56.853Z,16.67
2017-08-08T12:21:23.675Z,16.57
2017-08-08T12:23:50.534Z,17.30
2017-08-08T12:26:17.357Z,16.70
2017-08-08T12:28:44.216Z,16.27
2017-08-08T12:31:11.062Z,15.77
2017-08-08T12:33:37.857Z,16.70
2017-08-08T12:36:04.659Z,15.50
2017-08-08T12:38:31.491Z,16.00
2017-08-08T12:40:58.308Z,15.67
2017-08-08T12:43:25.925Z,15.03
2017-08-08T12:45:52.786Z,15.07
2017-08-08T12:48:19.580Z,15.40
2017-08-08T12:50:46.429Z,16.70
2017-08-08T12:53:13.309Z,16.33
2017-08-08T12:55:40.106Z,16.23
2017-08-08T12:58:06.901Z,17.13
2017-08-08T13:00:33.751Z,16.27
2017-08-08T13:03:00.540Z,16.27
2017-08-08T13:05:27.359Z,16.30
2017-08-08T13:07:54.267Z,17.33
2017-08-08T13:10:21.068Z,16.13
2017-08-08T13:12:47.934Z,16.23
2017-08-08T13:15:14.773Z,16.27
2017-08-08T13:17:42.529Z,17.10
2017-08-08T13:20:09.315Z,15.40
2017-08-08T13:22:36.180Z,17.40
2017-08-08T13:25:03.080Z,17.57
2017-08-08T13:27:29.901Z,17.00
2017-08-08T13:29:57.065Z,17.03
2017-08-08T13:32:23.878Z,17.10
2017-08-08T13:34:50.689Z,15.77
2017-08-08T13:37:17.528Z,17.30
2017-08-08T13:39:44.338Z,16.70
2017-08-08T13:42:11.154Z,17.07
2017-08-08T13:44:40.353Z,17.50
2017-08-08T13:47:07.139Z,16.70
2017-08-08T13:49:34.871Z,16.50
2017-08-08T13:52:01.710Z,17.70
2017-08-08T13:54:28.528Z,17.87
2017-08-08T13:56:55.397Z,18.00
2017-08-08T13:59:24.301Z,18.43
2017-08-08T14:01:51.099Z,16.63
2017-08-08T14:04:18.477Z,17.20
2017-08-08T14:06:45.438Z,17.47
2017-08-08T14:09:12.240Z,17.80
2017-08-08T14:11:39.046Z,17.60
2017-08-08T14:14:05.897Z,18.30
2017-08-08T14:16:32.708Z,18.20
2017-08-08T14:18:59.588Z,17.23
2017-08-08T14:21:26.492Z,17.17
2017-08-08T14:23:53.295Z,16.43
2017-08-08T14:26:20.169Z,16.87
2017-08-08T14:28:47.030Z,17.97
2017-08-08T14:31:13.905Z,17.20
2017-08-08T14:33:41.243Z,18.47
2017-08-08T14:36:08.119Z,18.37
2017-08-08T14:38:34.925Z,17.00
2017-08-08T14:41:01.745Z,18.10
2017-08-08T14:43:28.586Z,17.00
2017-08-08T14:45:55.407Z,17.17
2017-08-08T14:48:22.213Z,17.30
2017-08-08T14:50:49.090Z,17.00
2017-08-08T14:53:15.883Z,16.80
2017-08-08T14:55:43.539Z,16.17
2017-08-08T14:58:11.896Z,16.37
2017-08-08T15:00:38.693Z,16.40
2017-08-08T15:03:05.487Z,16.90
2017-08-08T15:05:32.417Z,16.57
2017-08-08T15:07:59.238Z,15.43
2017-08-08T15:10:26.108Z,17.20
2017-08-08T15:12:53.046Z,17.23
2017-08-08T15:15:19.853Z,16.37
2017-08-08T15:17:46.701Z,16.00
2017-08-08T15:20:13.602Z,17.70
2017-08-08T15:22:40.416Z,17.60
2017-08-08T15:25:07.878Z,17.63
2017-08-08T15:27:34.721Z,18.40
2017-08-08T15:30:02.153Z,17.83
2017-08-08T15:32:29.013Z,17.80
2017-08-08T15:34:56.058Z,17.10
2017-08-08T15:37:22.925Z,17.73
2017-08-08T15:39:49.785Z,17.10
2017-08-08T15:42:18.182Z,17.37
2017-08-08T15:44:44.972Z,19.80
2017-08-08T15:47:18.180Z,22.40
2017-08-08T15:49:45.049Z,23.07
2017-08-08T15:52:11.947Z,23.67
2017-08-08T15:54:38.803Z,23.27
2017-08-08T15:57:05.612Z,22.47
2017-08-08T15:59:32.415Z,22.90
2017-08-08T16:01:59.325Z,25.00
2017-08-08T16:04:26.181Z,22.50
2017-08-08T16:06:53.072Z,22.37
2017-08-08T16:09:20.001Z,23.23
2017-08-08T16:11:46.829Z,22.43
2017-08-08T16:14:13.695Z,24.67
2017-08-08T16:16:40.549Z,22.83
2017-08-08T16:19:07.336Z,22.77
2017-08-08T16:21:34.209Z,22.60
2017-08-08T16:24:01.112Z,23.83
2017-08-08T16:26:27.993Z,21.93
2017-08-08T16:28:54.799Z,20.70
2017-08-08T16:31:22.148Z,22.00
2017-08-08T16:33:48.973Z,21.93
2017-08-08T16:36:16.006Z,24.03
2017-08-08T16:38:42.865Z,26.67
2017-08-08T16:41:09.722Z,28.17
2017-08-08T16:43:36.523Z,30.23
2017-08-08T16:46:03.375Z,29.93
2017-08-08T16:48:30.179Z,30.40
2017-08-08T16:50:57.216Z,25.83
2017-08-08T16:53:24.100Z,26.77
2017-08-08T16:55:50.898Z,24.10
2017-08-08T16:58:17.752Z,25.90
2017-08-08T17:00:44.695Z,23.90
2017-08-08T17:03:12.047Z,24.23
2017-08-08T17:05:38.929Z,25.50
2017-08-08T17:08:05.787Z,23.50
2017-08-08T17:10:32.668Z,24.07
2017-08-08T17:12:59.553Z,21.23
2017-08-08T17:15:26.744Z,24.47
2017-08-08T17:17:54.377Z,25.17
2017-08-08T17:20:21.225Z,22.57
2017-08-08T17:22:49.449Z,21.67
2017-08-08T17:25:16.300Z,20.57
2017-08-08T17:27:43.638Z,21.50
2017-08-08T17:30:10.449Z,24.43
2017-08-08T17:32:37.307Z,23.17
2017-08-08T17:35:04.166Z,23.20
2017-08-08T17:37:31.054Z,23.07
2017-08-08T17:39:57.852Z,20.77
2017-08-08T17:42:24.648Z,21.40
2017-08-08T17:44:51.488Z,20.20
2017-08-08T17:47:18.312Z,20.93
2017-08-08T17:49:45.212Z,20.90
2017-08-08T17:52:12.123Z,21.37
2017-08-08T17:54:38.904Z,21.00
2017-08-08T17:57:05.716Z,20.30
2017-08-08T17:59:32.634Z,21.03
2017-08-08T18:01:59.454Z,20.70
2017-08-08T18:04:27.150Z,21.47
2017-08-08T18:06:54.218Z,21.73
2017-08-08T18:09:21.003Z,21.07
2017-08-08T18:11:47.780Z,22.30
2017-08-08T18:14:14.891Z,20.77
2017-08-08T18:16:41.771Z,21.87
2017-08-08T18:19:08.549Z,21.67
2017-08-08T18:21:35.640Z,21.37
2017-08-08T18:24:02.416Z,20.33
2017-08-08T18:26:29.190Z,20.20
2017-08-08T18:28:56.276Z,21.80
2017-08-08T18:31:23.222Z,22.20
2017-08-08T18:33:50.025Z,22.70
2017-08-08T18:36:16.854Z,21.90
2017-08-08T18:38:43.703Z,23.97
2017-08-08T18:41:10.496Z,25.37
2017-08-08T18:43:37.648Z,24.47
2017-08-08T18:46:04.414Z,25.50
2017-08-08T18:48:31.192Z,25.37
2017-08-08T18:50:58.049Z,25.40
2017-08-08T18:53:24.830Z,24.90
2017-08-08T18:55:51.631Z,24.60
2017-08-08T18:58:23.696Z,22.50
2017-08-08T19:00:50.546Z,23.20
2017-08-08T19:03:17.324Z,22.10
2017-08-08T19:05:44.232Z,23.60
2017-08-08T19:08:11.912Z,22.80
2017-08-08T19:10:38.693Z,23.50
2017-08-08T19:13:05.524Z,22.87
2017-08-08T19:15:32.321Z,23.17
2017-08-08T19:17:59.112Z,23.00
2017-08-08T19:20:26.232Z,24.40
2017-08-08T19:22:53.009Z,24.67
2017-08-08T19:25:19.794Z,23.43
2017-08-08T19:27:46.739Z,25.90
2017-08-08T19:30:13.524Z,24.23
2017-08-08T19:32:40.320Z,23.97
2017-08-08T19:35:07.160Z,24.60
2017-08-08T19:37:33.993Z,25.60
2017-08-08T19:40:00.883Z,26.73
2017-08-08T19:42:27.718Z,26.63
2017-08-08T19:44:54.583Z,25.03
2017-08-08T19:47:21.458Z,26.27
2017-08-08T19:49:48.336Z,27.33
2017-08-08T19:52:15.182Z,27.03
2017-08-08T19:54:42.042Z,26.07
2017-08-08T19:57:11.782Z,25.80
2017-08-08T19:59:38.573Z,24.90
2017-08-08T20:02:05.413Z,27.10
2017-08-08T20:04:32.230Z,25.47
2017-08-08T20:06:59.030Z,25.50
2017-08-08T20:09:25.847Z,25.03
2017-08-08T20:11:52.682Z,24.60
2017-08-08T20:14:19.452Z,26.53
2017-08-08T20:16:46.296Z,25.50
2017-08-08T20:19:13.199Z,25.93
2017-08-08T20:21:40.009Z,23.23
2017-08-08T20:24:06.790Z,22.53
2017-08-08T20:26:33.596Z,23.70
2017-08-08T20:29:00.459Z,22.67
2017-08-08T20:31:27.237Z,22.90
2017-08-08T20:33:54.049Z,21.70
2017-08-08T20:36:21.268Z,22.90
2017-08-08T20:38:49.040Z,22.50
2017-08-08T20:41:15.925Z,21.93
2017-08-08T20:43:47.131Z,20.33
2017-08-08T20:46:15.224Z,20.83
2017-08-08T20:48:43.425Z,20.40
2017-08-08T20:51:10.326Z,22.23
2017-08-08T20:53:37.195Z,22.33
2017-08-08T20:56:04.020Z,20.97
2017-08-08T20:58:30.908Z,22.30
2017-08-08T21:00:57.864Z,21.67
2017-08-08T21:03:24.696Z,22.33
2017-08-08T21:05:51.492Z,21.00
2017-08-08T21:08:18.294Z,21.00
2017-08-08T21:10:45.108Z,19.40
2017-08-08T21:13:11.899Z,20.20
2017-08-08T21:15:38.738Z,19.23
2017-08-08T21:18:05.631Z,20.10
2017-08-08T21:20:32.423Z,17.90
2017-08-08T21:22:59.256Z,18.33
2017-08-08T21:25:26.093Z,18.10
2017-08-08T21:27:52.868Z,17.23
2017-08-08T21:30:19.645Z,18.50
2017-08-08T21:32:46.449Z,17.50
2017-08-08T21:35:13.243Z,17.80
2017-08-08T21:37:40.087Z,16.90
2017-08-08T21:40:06.892Z,18.30
2017-08-08T21:42:33.678Z,17.40
2017-08-08T21:45:00.515Z,17.10
2017-08-08T21:47:27.359Z,17.07
2017-08-08T21:49:54.135Z,16.10
2017-08-08T21:52:20.937Z,14.70
2017-08-08T21:54:47.748Z,15.50
2017-08-08T21:57:14.586Z,15.10
2017-08-08T21:59:41.383Z,15.73
2017-08-08T22:02:08.224Z,14.70
2017-08-08T22:04:35.073Z,14.00
2017-08-08T22:07:01.854Z,15.57
2017-08-08T22:09:28.730Z,16.20
2017-08-08T22:11:55.506Z,15.40
2017-08-08T22:14:22.316Z,16.37
2017-08-08T22:16:49.170Z,16.23
2017-08-08T22:19:16.010Z,15.20
2017-08-08T22:21:42.782Z,15.00
2017-08-08T22:24:09.615Z,15.50
2017-08-08T22:26:36.388Z,15.57
2017-08-08T22:29:03.171Z,15.33
2017-08-08T22:31:29.998Z,14.70
2017-08-08T22:33:56.839Z,14.37
2017-08-08T22:36:23.632Z,15.47
2017-08-08T22:38:50.466Z,14.47
2017-08-08T22:41:17.252Z,14.80
2017-08-08T22:43:44.020Z,14.80
2017-08-08T22:46:10.855Z,15.13
2017-08-08T22:48:37.633Z,14.20
2017-08-08T22:51:04.424Z,14.20
2017-08-08T22:53:31.318Z,14.90
2017-08-08T22:55:58.131Z,15.70
2017-08-08T22:58:24.928Z,15.50
2017-08-08T23:00:51.767Z,15.53
2017-08-08T23:03:18.547Z,16.90
2017-08-08T23:05:45.312Z,15.00
2017-08-08T23:08:12.194Z,16.73
2017-08-08T23:10:38.983Z,17.03
2017-08-08T23:13:05.834Z,18.30
2017-08-08T23:15:32.667Z,18.03
2017-08-08T23:17:59.429Z,16.90
2017-08-08T23:20:26.196Z,15.70
2017-08-08T23:22:53.027Z,17.30
2017-08-08T23:25:19.871Z,15.90
2017-08-08T23:27:46.776Z,16.00
2017-08-08T23:30:13.670Z,16.00
2017-08-08T23:32:40.464Z,15.40
2017-08-08T23:35:07.263Z,14.30
2017-08-08T23:37:37.712Z,15.70
2017-08-08T23:40:04.480Z,15.00
2017-08-08T23:42:31.321Z,14.13
2017-08-08T23:44:58.148Z,14.23
2017-08-08T23:47:24.927Z,14.50
2017-08-08T23:49:51.772Z,14.87
2017-08-08T23:52:18.644Z,14.43
2017-08-08T23:54:45.458Z,14.03
2017-08-08T23:57:12.254Z,14.60
2017-08-08T23:59:39.092Z,14.57
